sensor_id;sensor_type;location;lat;lon;timestamp;P1;durP1;ratioP1;P2;durP2;ratioP2
76708;SDS011;74360;44.410;0.216;2023-12-14T00:05:01;5.43;;;1.20;;
76708;SDS011;74360;44.410;0.216;2023-12-14T00:10:34;5.70;;;1.50;;
76708;SDS011;74360;44.410;0.216;2023-12-14T00:16:08;6.40;;;1.40;;
76708;SDS011;74360;44.410;0.216;2023-12-14T00:21:39;4.53;;;1.10;;
76708;SDS011;74360;44.410;0.216;2023-12-14T00:27:12;8.57;;;1.57;;
76708;SDS011;74360;44.410;0.216;2023-12-14T00:32:43;6.57;;;1.20;;
76708;SDS011;74360;44.410;0.216;2023-12-14T00:38:16;5.77;;;1.43;;
76708;SDS011;74360;44.410;0.216;2023-12-14T00:43:48;6.37;;;1.20;;
76708;SDS011;74360;44.410;0.216;2023-12-14T00:49:20;7.53;;;1.33;;
76708;SDS011;74360;44.410;0.216;2023-12-14T00:54:52;6.00;;;1.33;;
76708;SDS011;74360;44.410;0.216;2023-12-14T01:00:26;5.47;;;1.10;;
76708;SDS011;74360;44.410;0.216;2023-12-14T01:05:58;6.10;;;1.57;;
76708;SDS011;74360;44.410;0.216;2023-12-14T01:11:30;5.27;;;1.07;;
76708;SDS011;74360;44.410;0.216;2023-12-14T01:17:03;8.07;;;1.57;;
76708;SDS011;74360;44.410;0.216;2023-12-14T01:22:36;4.13;;;1.73;;
76708;SDS011;74360;44.410;0.216;2023-12-14T01:28:09;6.33;;;1.30;;
76708;SDS011;74360;44.410;0.216;2023-12-14T01:33:40;2.97;;;0.97;;
76708;SDS011;74360;44.410;0.216;2023-12-14T01:39:12;5.00;;;1.00;;
76708;SDS011;74360;44.410;0.216;2023-12-14T01:44:45;5.73;;;1.10;;
76708;SDS011;74360;44.410;0.216;2023-12-14T01:50:18;4.57;;;1.60;;
76708;SDS011;74360;44.410;0.216;2023-12-14T01:55:50;4.70;;;1.40;;
76708;SDS011;74360;44.410;0.216;2023-12-14T02:01:26;3.37;;;1.23;;
76708;SDS011;74360;44.410;0.216;2023-12-14T02:06:57;5.13;;;1.10;;
76708;SDS011;74360;44.410;0.216;2023-12-14T02:12:30;5.27;;;1.50;;
76708;SDS011;74360;44.410;0.216;2023-12-14T02:18:03;10.00;;;2.43;;
76708;SDS011;74360;44.410;0.216;2023-12-14T02:23:35;5.73;;;1.57;;
76708;SDS011;74360;44.410;0.216;2023-12-14T02:29:07;7.27;;;1.90;;
76708;SDS011;74360;44.410;0.216;2023-12-14T02:34:39;6.93;;;1.37;;
76708;SDS011;74360;44.410;0.216;2023-12-14T02:40:12;5.90;;;1.40;;
76708;SDS011;74360;44.410;0.216;2023-12-14T02:45:44;6.47;;;1.63;;
76708;SDS011;74360;44.410;0.216;2023-12-14T02:51:16;4.70;;;1.40;;
76708;SDS011;74360;44.410;0.216;2023-12-14T02:56:50;5.03;;;1.40;;
76708;SDS011;74360;44.410;0.216;2023-12-14T03:02:22;8.20;;;1.53;;
76708;SDS011;74360;44.410;0.216;2023-12-14T03:07:55;5.97;;;1.60;;
76708;SDS011;74360;44.410;0.216;2023-12-14T03:13:29;5.47;;;1.63;;
76708;SDS011;74360;44.410;0.216;2023-12-14T03:19:00;7.77;;;1.70;;
76708;SDS011;74360;44.410;0.216;2023-12-14T03:24:32;9.83;;;1.70;;
76708;SDS011;74360;44.410;0.216;2023-12-14T03:30:08;5.50;;;1.53;;
76708;SDS011;74360;44.410;0.216;2023-12-14T03:35:38;6.20;;;1.60;;
76708;SDS011;74360;44.410;0.216;2023-12-14T03:41:10;4.23;;;1.67;;
76708;SDS011;74360;44.410;0.216;2023-12-14T03:46:42;8.40;;;1.60;;
76708;SDS011;74360;44.410;0.216;2023-12-14T03:52:15;3.53;;;1.07;;
76708;SDS011;74360;44.410;0.216;2023-12-14T03:57:48;17.60;;;1.83;;
76708;SDS011;74360;44.410;0.216;2023-12-14T04:03:21;5.47;;;1.87;;
76708;SDS011;74360;44.410;0.216;2023-12-14T04:08:55;5.60;;;1.60;;
76708;SDS011;74360;44.410;0.216;2023-12-14T04:14:27;6.87;;;1.60;;
76708;SDS011;74360;44.410;0.216;2023-12-14T04:19:59;10.67;;;1.70;;
76708;SDS011;74360;44.410;0.216;2023-12-14T04:25:32;4.23;;;1.40;;
76708;SDS011;74360;44.410;0.216;2023-12-14T04:31:03;8.07;;;1.40;;
76708;SDS011;74360;44.410;0.216;2023-12-14T04:36:37;5.40;;;1.10;;
76708;SDS011;74360;44.410;0.216;2023-12-14T04:42:09;5.77;;;1.47;;
76708;SDS011;74360;44.410;0.216;2023-12-14T04:47:42;7.40;;;1.40;;
76708;SDS011;74360;44.410;0.216;2023-12-14T04:53:15;8.37;;;2.07;;
76708;SDS011;74360;44.410;0.216;2023-12-14T04:58:47;7.43;;;1.60;;
76708;SDS011;74360;44.410;0.216;2023-12-14T05:04:20;5.50;;;1.33;;
76708;SDS011;74360;44.410;0.216;2023-12-14T05:09:52;8.97;;;1.70;;
76708;SDS011;74360;44.410;0.216;2023-12-14T05:15:24;8.73;;;2.70;;
76708;SDS011;74360;44.410;0.216;2023-12-14T05:20:59;6.33;;;1.80;;
76708;SDS011;74360;44.410;0.216;2023-12-14T05:26:31;7.90;;;1.87;;
76708;SDS011;74360;44.410;0.216;2023-12-14T05:32:04;7.87;;;1.87;;
76708;SDS011;74360;44.410;0.216;2023-12-14T05:37:38;6.23;;;2.00;;
76708;SDS011;74360;44.410;0.216;2023-12-14T05:43:10;8.03;;;1.70;;
76708;SDS011;74360;44.410;0.216;2023-12-14T05:48:41;5.00;;;1.33;;
76708;SDS011;74360;44.410;0.216;2023-12-14T05:54:14;7.90;;;2.30;;
76708;SDS011;74360;44.410;0.216;2023-12-14T05:59:47;8.67;;;2.83;;
76708;SDS011;74360;44.410;0.216;2023-12-14T06:05:20;9.57;;;1.90;;
76708;SDS011;74360;44.410;0.216;2023-12-14T06:10:53;10.50;;;1.80;;
76708;SDS011;74360;44.410;0.216;2023-12-14T06:16:25;5.97;;;1.80;;
76708;SDS011;74360;44.410;0.216;2023-12-14T06:21:59;4.63;;;1.57;;
76708;SDS011;74360;44.410;0.216;2023-12-14T06:27:32;6.77;;;2.10;;
76708;SDS011;74360;44.410;0.216;2023-12-14T06:33:04;6.37;;;1.50;;
76708;SDS011;74360;44.410;0.216;2023-12-14T06:38:38;10.73;;;1.87;;
76708;SDS011;74360;44.410;0.216;2023-12-14T06:44:11;7.07;;;1.87;;
76708;SDS011;74360;44.410;0.216;2023-12-14T06:49:44;9.03;;;1.90;;
76708;SDS011;74360;44.410;0.216;2023-12-14T06:55:17;9.53;;;2.30;;
76708;SDS011;74360;44.410;0.216;2023-12-14T07:00:50;9.57;;;2.57;;
76708;SDS011;74360;44.410;0.216;2023-12-14T07:06:23;8.50;;;2.90;;
76708;SDS011;74360;44.410;0.216;2023-12-14T07:11:56;10.93;;;2.37;;
76708;SDS011;74360;44.410;0.216;2023-12-14T07:17:29;7.47;;;2.83;;
76708;SDS011;74360;44.410;0.216;2023-12-14T07:23:01;7.83;;;2.40;;
76708;SDS011;74360;44.410;0.216;2023-12-14T07:28:34;8.37;;;2.77;;
76708;SDS011;74360;44.410;0.216;2023-12-14T07:34:07;11.10;;;3.20;;
76708;SDS011;74360;44.410;0.216;2023-12-14T07:39:41;7.83;;;2.10;;
76708;SDS011;74360;44.410;0.216;2023-12-14T07:45:13;7.93;;;2.47;;
76708;SDS011;74360;44.410;0.216;2023-12-14T07:50:46;9.23;;;2.03;;
76708;SDS011;74360;44.410;0.216;2023-12-14T07:56:18;7.73;;;2.17;;
76708;SDS011;74360;44.410;0.216;2023-12-14T08:01:51;9.60;;;2.47;;
76708;SDS011;74360;44.410;0.216;2023-12-14T08:07:23;10.80;;;2.20;;
76708;SDS011;74360;44.410;0.216;2023-12-14T08:12:55;7.53;;;2.30;;
76708;SDS011;74360;44.410;0.216;2023-12-14T08:18:28;8.87;;;1.47;;
76708;SDS011;74360;44.410;0.216;2023-12-14T08:24:01;5.67;;;2.17;;
76708;SDS011;74360;44.410;0.216;2023-12-14T08:29:35;9.17;;;2.23;;
76708;SDS011;74360;44.410;0.216;2023-12-14T08:35:08;7.37;;;2.63;;
76708;SDS011;74360;44.410;0.216;2023-12-14T08:40:41;7.33;;;1.73;;
76708;SDS011;74360;44.410;0.216;2023-12-14T08:46:13;8.20;;;1.60;;
76708;SDS011;74360;44.410;0.216;2023-12-14T08:51:45;8.40;;;1.87;;
76708;SDS011;74360;44.410;0.216;2023-12-14T08:57:18;9.13;;;1.60;;
76708;SDS011;74360;44.410;0.216;2023-12-14T09:02:51;6.70;;;1.57;;
76708;SDS011;74360;44.410;0.216;2023-12-14T09:08:24;8.30;;;1.60;;
76708;SDS011;74360;44.410;0.216;2023-12-14T09:13:57;8.30;;;1.40;;
76708;SDS011;74360;44.410;0.216;2023-12-14T09:19:30;7.67;;;1.43;;
76708;SDS011;74360;44.410;0.216;2023-12-14T09:25:04;8.97;;;1.57;;
76708;SDS011;74360;44.410;0.216;2023-12-14T09:30:36;6.20;;;1.10;;
76708;SDS011;74360;44.410;0.216;2023-12-14T09:36:09;7.03;;;1.40;;
76708;SDS011;74360;44.410;0.216;2023-12-14T09:41:41;6.53;;;1.37;;
76708;SDS011;74360;44.410;0.216;2023-12-14T09:47:14;6.73;;;1.30;;
76708;SDS011;74360;44.410;0.216;2023-12-14T09:52:48;8.93;;;1.13;;
76708;SDS011;74360;44.410;0.216;2023-12-14T09:58:18;10.17;;;1.83;;
76708;SDS011;74360;44.410;0.216;2023-12-14T10:03:53;5.20;;;1.27;;
76708;SDS011;74360;44.410;0.216;2023-12-14T10:09:24;6.17;;;1.40;;
76708;SDS011;74360;44.410;0.216;2023-12-14T10:15:00;6.53;;;1.30;;
76708;SDS011;74360;44.410;0.216;2023-12-14T10:20:29;5.23;;;1.33;;
76708;SDS011;74360;44.410;0.216;2023-12-14T10:26:01;7.00;;;1.10;;
76708;SDS011;74360;44.410;0.216;2023-12-14T10:31:38;6.30;;;1.10;;
76708;SDS011;74360;44.410;0.216;2023-12-14T10:37:07;7.37;;;1.30;;
76708;SDS011;74360;44.410;0.216;2023-12-14T10:42:40;5.60;;;1.13;;
76708;SDS011;74360;44.410;0.216;2023-12-14T10:48:13;4.77;;;1.20;;
76708;SDS011;74360;44.410;0.216;2023-12-14T10:53:47;5.00;;;0.93;;
76708;SDS011;74360;44.410;0.216;2023-12-14T10:59:17;8.63;;;1.70;;
76708;SDS011;74360;44.410;0.216;2023-12-14T11:04:53;5.07;;;1.17;;
76708;SDS011;74360;44.410;0.216;2023-12-14T11:10:26;6.43;;;1.57;;
76708;SDS011;74360;44.410;0.216;2023-12-14T11:15:54;5.63;;;0.97;;
76708;SDS011;74360;44.410;0.216;2023-12-14T11:21:26;6.40;;;1.17;;
76708;SDS011;74360;44.410;0.216;2023-12-14T11:27:00;5.87;;;1.17;;
76708;SDS011;74360;44.410;0.216;2023-12-14T11:32:32;6.07;;;1.10;;
76708;SDS011;74360;44.410;0.216;2023-12-14T11:38:11;5.07;;;1.00;;
76708;SDS011;74360;44.410;0.216;2023-12-14T11:43:39;5.30;;;0.80;;
76708;SDS011;74360;44.410;0.216;2023-12-14T11:49:10;6.53;;;1.00;;
76708;SDS011;74360;44.410;0.216;2023-12-14T11:54:44;4.67;;;1.10;;
76708;SDS011;74360;44.410;0.216;2023-12-14T12:00:17;4.87;;;0.97;;
76708;SDS011;74360;44.410;0.216;2023-12-14T12:05:50;4.83;;;0.90;;
76708;SDS011;74360;44.410;0.216;2023-12-14T12:11:23;5.97;;;1.10;;
76708;SDS011;74360;44.410;0.216;2023-12-14T12:16:55;6.50;;;0.80;;
76708;SDS011;74360;44.410;0.216;2023-12-14T12:22:27;5.63;;;0.83;;
76708;SDS011;74360;44.410;0.216;2023-12-14T12:28:00;3.87;;;0.80;;
76708;SDS011;74360;44.410;0.216;2023-12-14T12:33:37;4.93;;;0.90;;
76708;SDS011;74360;44.410;0.216;2023-12-14T12:39:06;3.67;;;0.60;;
76708;SDS011;74360;44.410;0.216;2023-12-14T12:44:38;6.33;;;1.13;;
76708;SDS011;74360;44.410;0.216;2023-12-14T12:50:11;7.83;;;2.50;;
76708;SDS011;74360;44.410;0.216;2023-12-14T12:55:43;6.20;;;2.67;;
76708;SDS011;74360;44.410;0.216;2023-12-14T13:01:16;5.33;;;0.90;;
76708;SDS011;74360;44.410;0.216;2023-12-14T13:06:49;3.87;;;0.70;;
76708;SDS011;74360;44.410;0.216;2023-12-14T13:12:20;5.23;;;0.90;;
76708;SDS011;74360;44.410;0.216;2023-12-14T13:17:52;3.20;;;0.80;;
76708;SDS011;74360;44.410;0.216;2023-12-14T13:23:24;7.43;;;1.03;;
76708;SDS011;74360;44.410;0.216;2023-12-14T13:28:56;6.90;;;1.17;;
76708;SDS011;74360;44.410;0.216;2023-12-14T13:34:28;3.97;;;0.97;;
76708;SDS011;74360;44.410;0.216;2023-12-14T13:40:00;6.27;;;1.53;;
76708;SDS011;74360;44.410;0.216;2023-12-14T13:45:32;2.73;;;0.90;;
76708;SDS011;74360;44.410;0.216;2023-12-14T13:51:04;4.40;;;1.13;;
76708;SDS011;74360;44.410;0.216;2023-12-14T13:56:36;6.10;;;1.27;;
76708;SDS011;74360;44.410;0.216;2023-12-14T14:02:08;7.00;;;1.67;;
76708;SDS011;74360;44.410;0.216;2023-12-14T14:07:40;10.43;;;4.63;;
76708;SDS011;74360;44.410;0.216;2023-12-14T14:13:12;6.47;;;2.00;;
76708;SDS011;74360;44.410;0.216;2023-12-14T14:18:44;10.57;;;4.03;;
76708;SDS011;74360;44.410;0.216;2023-12-14T14:24:16;7.20;;;2.17;;
76708;SDS011;74360;44.410;0.216;2023-12-14T14:29:49;6.93;;;2.47;;
76708;SDS011;74360;44.410;0.216;2023-12-14T14:35:24;8.33;;;1.87;;
76708;SDS011;74360;44.410;0.216;2023-12-14T14:40:55;5.70;;;1.60;;
76708;SDS011;74360;44.410;0.216;2023-12-14T14:46:27;5.23;;;1.10;;
76708;SDS011;74360;44.410;0.216;2023-12-14T14:52:00;5.67;;;1.10;;
76708;SDS011;74360;44.410;0.216;2023-12-14T14:57:34;4.17;;;1.40;;
76708;SDS011;74360;44.410;0.216;2023-12-14T15:03:08;8.20;;;1.70;;
76708;SDS011;74360;44.410;0.216;2023-12-14T15:08:36;7.17;;;1.87;;
76708;SDS011;74360;44.410;0.216;2023-12-14T15:14:09;6.97;;;2.10;;
76708;SDS011;74360;44.410;0.216;2023-12-14T15:19:46;10.23;;;1.80;;
76708;SDS011;74360;44.410;0.216;2023-12-14T15:25:17;8.53;;;2.20;;
76708;SDS011;74360;44.410;0.216;2023-12-14T15:30:48;7.83;;;2.70;;
76708;SDS011;74360;44.410;0.216;2023-12-14T15:36:20;11.10;;;2.80;;
76708;SDS011;74360;44.410;0.216;2023-12-14T15:41:54;9.83;;;3.03;;
76708;SDS011;74360;44.410;0.216;2023-12-14T15:47:25;7.57;;;2.30;;
76708;SDS011;74360;44.410;0.216;2023-12-14T15:52:59;6.63;;;1.70;;
76708;SDS011;74360;44.410;0.216;2023-12-14T15:58:32;6.00;;;2.17;;
76708;SDS011;74360;44.410;0.216;2023-12-14T16:04:04;7.87;;;2.80;;
76708;SDS011;74360;44.410;0.216;2023-12-14T16:09:36;9.83;;;3.33;;
76708;SDS011;74360;44.410;0.216;2023-12-14T16:15:09;10.87;;;3.17;;
76708;SDS011;74360;44.410;0.216;2023-12-14T16:20:41;12.10;;;2.80;;
76708;SDS011;74360;44.410;0.216;2023-12-14T16:26:14;7.13;;;2.93;;
76708;SDS011;74360;44.410;0.216;2023-12-14T16:31:47;10.90;;;4.63;;
76708;SDS011;74360;44.410;0.216;2023-12-14T16:37:19;8.67;;;2.70;;
76708;SDS011;74360;44.410;0.216;2023-12-14T16:42:52;7.80;;;2.43;;
76708;SDS011;74360;44.410;0.216;2023-12-14T16:48:25;8.70;;;2.40;;
76708;SDS011;74360;44.410;0.216;2023-12-14T16:53:58;9.97;;;3.73;;
76708;SDS011;74360;44.410;0.216;2023-12-14T16:59:30;9.23;;;2.73;;
76708;SDS011;74360;44.410;0.216;2023-12-14T17:05:02;13.47;;;5.40;;
76708;SDS011;74360;44.410;0.216;2023-12-14T17:10:35;17.87;;;8.70;;
76708;SDS011;74360;44.410;0.216;2023-12-14T17:16:12;15.73;;;8.00;;
76708;SDS011;74360;44.410;0.216;2023-12-14T17:21:41;14.50;;;6.23;;
76708;SDS011;74360;44.410;0.216;2023-12-14T17:27:14;8.00;;;3.43;;
76708;SDS011;74360;44.410;0.216;2023-12-14T17:32:48;15.60;;;5.80;;
76708;SDS011;74360;44.410;0.216;2023-12-14T17:38:19;10.93;;;3.50;;
76708;SDS011;74360;44.410;0.216;2023-12-14T17:43:52;11.40;;;5.70;;
76708;SDS011;74360;44.410;0.216;2023-12-14T17:49:23;11.13;;;3.90;;
76708;SDS011;74360;44.410;0.216;2023-12-14T17:54:56;7.57;;;3.30;;
76708;SDS011;74360;44.410;0.216;2023-12-14T18:00:28;6.40;;;2.80;;
76708;SDS011;74360;44.410;0.216;2023-12-14T18:06:01;7.73;;;2.70;;
76708;SDS011;74360;44.410;0.216;2023-12-14T18:11:33;7.57;;;2.70;;
76708;SDS011;74360;44.410;0.216;2023-12-14T18:17:06;7.03;;;2.73;;
76708;SDS011;74360;44.410;0.216;2023-12-14T18:22:38;8.20;;;3.13;;
76708;SDS011;74360;44.410;0.216;2023-12-14T18:28:12;7.93;;;2.83;;
76708;SDS011;74360;44.410;0.216;2023-12-14T18:33:46;9.43;;;3.20;;
76708;SDS011;74360;44.410;0.216;2023-12-14T18:39:17;8.87;;;3.87;;
76708;SDS011;74360;44.410;0.216;2023-12-14T18:44:49;11.53;;;3.97;;
76708;SDS011;74360;44.410;0.216;2023-12-14T18:50:21;10.40;;;3.13;;
76708;SDS011;74360;44.410;0.216;2023-12-14T18:55:55;9.07;;;3.10;;
76708;SDS011;74360;44.410;0.216;2023-12-14T19:01:27;15.53;;;5.07;;
76708;SDS011;74360;44.410;0.216;2023-12-14T19:06:58;16.00;;;5.80;;
76708;SDS011;74360;44.410;0.216;2023-12-14T19:12:31;9.90;;;4.50;;
76708;SDS011;74360;44.410;0.216;2023-12-14T19:18:04;12.33;;;4.33;;
76708;SDS011;74360;44.410;0.216;2023-12-14T19:23:37;7.37;;;3.13;;
76708;SDS011;74360;44.410;0.216;2023-12-14T19:29:09;10.33;;;2.70;;
76708;SDS011;74360;44.410;0.216;2023-12-14T19:34:41;9.67;;;2.80;;
76708;SDS011;74360;44.410;0.216;2023-12-14T19:40:15;10.70;;;3.20;;
76708;SDS011;74360;44.410;0.216;2023-12-14T19:45:44;11.77;;;3.20;;
76708;SDS011;74360;44.410;0.216;2023-12-14T19:51:18;6.17;;;2.73;;
76708;SDS011;74360;44.410;0.216;2023-12-14T19:56:50;10.20;;;4.70;;
76708;SDS011;74360;44.410;0.216;2023-12-14T20:02:22;10.70;;;4.30;;
76708;SDS011;74360;44.410;0.216;2023-12-14T20:07:54;17.13;;;6.30;;
76708;SDS011;74360;44.410;0.216;2023-12-14T20:13:28;10.03;;;6.07;;
76708;SDS011;74360;44.410;0.216;2023-12-14T20:19:00;13.37;;;6.03;;
76708;SDS011;74360;44.410;0.216;2023-12-14T20:24:31;13.70;;;7.13;;
76708;SDS011;74360;44.410;0.216;2023-12-14T20:30:05;7.77;;;4.13;;
76708;SDS011;74360;44.410;0.216;2023-12-14T20:35:36;9.90;;;3.87;;
76708;SDS011;74360;44.410;0.216;2023-12-14T20:41:10;11.27;;;4.83;;
76708;SDS011;74360;44.410;0.216;2023-12-14T20:46:42;13.60;;;5.50;;
76708;SDS011;74360;44.410;0.216;2023-12-14T20:52:14;13.27;;;4.70;;
76708;SDS011;74360;44.410;0.216;2023-12-14T20:57:47;10.87;;;6.77;;
76708;SDS011;74360;44.410;0.216;2023-12-14T21:03:20;19.70;;;8.27;;
76708;SDS011;74360;44.410;0.216;2023-12-14T21:08:53;13.93;;;7.27;;
76708;SDS011;74360;44.410;0.216;2023-12-14T21:14:26;17.97;;;7.23;;
76708;SDS011;74360;44.410;0.216;2023-12-14T21:19:58;14.10;;;6.20;;
76708;SDS011;74360;44.410;0.216;2023-12-14T21:25:38;16.07;;;6.47;;
76708;SDS011;74360;44.410;0.216;2023-12-14T21:31:04;9.53;;;4.60;;
76708;SDS011;74360;44.410;0.216;2023-12-14T21:36:37;11.57;;;4.27;;
76708;SDS011;74360;44.410;0.216;2023-12-14T21:42:09;14.87;;;4.93;;
76708;SDS011;74360;44.410;0.216;2023-12-14T21:47:41;12.77;;;4.53;;
76708;SDS011;74360;44.410;0.216;2023-12-14T21:53:14;14.00;;;6.27;;
76708;SDS011;74360;44.410;0.216;2023-12-14T21:58:46;15.13;;;5.60;;
76708;SDS011;74360;44.410;0.216;2023-12-14T22:04:19;14.10;;;4.57;;
76708;SDS011;74360;44.410;0.216;2023-12-14T22:09:52;10.60;;;4.07;;
76708;SDS011;74360;44.410;0.216;2023-12-14T22:15:24;8.10;;;3.17;;
76708;SDS011;74360;44.410;0.216;2023-12-14T22:20:56;11.83;;;3.20;;
76708;SDS011;74360;44.410;0.216;2023-12-14T22:26:29;12.87;;;3.10;;
76708;SDS011;74360;44.410;0.216;2023-12-14T22:32:01;9.40;;;2.50;;
76708;SDS011;74360;44.410;0.216;2023-12-14T22:37:34;9.67;;;2.70;;
76708;SDS011;74360;44.410;0.216;2023-12-14T22:43:06;17.17;;;3.60;;
76708;SDS011;74360;44.410;0.216;2023-12-14T22:48:38;12.90;;;3.53;;
76708;SDS011;74360;44.410;0.216;2023-12-14T22:54:12;12.67;;;4.30;;
76708;SDS011;74360;44.410;0.216;2023-12-14T22:59:43;11.43;;;4.00;;
76708;SDS011;74360;44.410;0.216;2023-12-14T23:05:17;17.23;;;5.30;;
76708;SDS011;74360;44.410;0.216;2023-12-14T23:10:49;18.93;;;5.23;;
76708;SDS011;74360;44.410;0.216;2023-12-14T23:16:22;15.13;;;5.03;;
76708;SDS011;74360;44.410;0.216;2023-12-14T23:21:55;18.97;;;5.37;;
76708;SDS011;74360;44.410;0.216;2023-12-14T23:27:27;16.90;;;5.10;;
76708;SDS011;74360;44.410;0.216;2023-12-14T23:33:01;23.20;;;6.50;;
76708;SDS011;74360;44.410;0.216;2023-12-14T23:38:32;18.70;;;5.30;;
76708;SDS011;74360;44.410;0.216;2023-12-14T23:44:05;19.37;;;4.93;;
76708;SDS011;74360;44.410;0.216;2023-12-14T23:49:38;22.53;;;4.87;;
76708;SDS011;74360;44.410;0.216;2023-12-14T23:55:12;14.33;;;4.37;;
